Tonawanda, New York
Current Conditions -  °F | °C
As of 10:53 PM on Wednesday 26 Nov 2014 (Local Time) from KIAG Reporting Station
Overcast Overcast  
Wind Chill: 23°   Ceiling: 3400
Heat Index: 31°   Visibility: 10mi
Dew Point: 23°   Wind: 8mph
Humidity: 72%   Direction: 50°NE
Pressure: 30.06"   Gusts: NA
Location:  43.02°N, 78.89°W
Report Text: KIAG 270353Z 05007KT 10SM OVC034 M01/M05 A3006 RMK AO2 SLP193 LAST T10061050
Loading
Personal Weather Stations






























Interactive Weather Map New forecast layout! Learn more

10-Day Weather Forecast

Advertisements
Track Severe Weather on mobile